sensor_id;sensor_type;location;lat;lon;timestamp;P1;durP1;ratioP1;P2;durP2;ratioP2
11287;SDS011;5700;50.996;7.044;2023-04-24T00:02:00;0.85;;;0.60;;
11287;SDS011;5700;50.996;7.044;2023-04-24T00:05:01;0.70;;;0.52;;
11287;SDS011;5700;50.996;7.044;2023-04-24T00:08:04;0.80;;;0.50;;
11287;SDS011;5700;50.996;7.044;2023-04-24T00:11:06;0.80;;;0.60;;
11287;SDS011;5700;50.996;7.044;2023-04-24T00:14:09;2.80;;;0.70;;
11287;SDS011;5700;50.996;7.044;2023-04-24T00:17:10;0.77;;;0.77;;
11287;SDS011;5700;50.996;7.044;2023-04-24T00:20:12;1.80;;;0.80;;
11287;SDS011;5700;50.996;7.044;2023-04-24T00:23:14;1.10;;;0.80;;
11287;SDS011;5700;50.996;7.044;2023-04-24T00:26:16;1.33;;;0.70;;
11287;SDS011;5700;50.996;7.044;2023-04-24T00:29:19;1.80;;;0.95;;
11287;SDS011;5700;50.996;7.044;2023-04-24T00:32:20;2.28;;;1.00;;
11287;SDS011;5700;50.996;7.044;2023-04-24T00:35:22;0.88;;;0.60;;
11287;SDS011;5700;50.996;7.044;2023-04-24T00:38:23;1.30;;;0.80;;
11287;SDS011;5700;50.996;7.044;2023-04-24T00:41:25;1.20;;;0.90;;
11287;SDS011;5700;50.996;7.044;2023-04-24T00:44:28;2.25;;;0.90;;
11287;SDS011;5700;50.996;7.044;2023-04-24T00:47:30;1.27;;;0.75;;
11287;SDS011;5700;50.996;7.044;2023-04-24T00:50:32;2.55;;;1.00;;
11287;SDS011;5700;50.996;7.044;2023-04-24T00:53:33;4.10;;;0.93;;
11287;SDS011;5700;50.996;7.044;2023-04-24T00:56:35;0.70;;;0.63;;
11287;SDS011;5700;50.996;7.044;2023-04-24T00:59:38;1.55;;;0.85;;
11287;SDS011;5700;50.996;7.044;2023-04-24T01:02:41;2.25;;;0.90;;
11287;SDS011;5700;50.996;7.044;2023-04-24T01:05:45;1.60;;;1.00;;
11287;SDS011;5700;50.996;7.044;2023-04-24T01:08:46;1.05;;;0.70;;
11287;SDS011;5700;50.996;7.044;2023-04-24T01:11:49;1.48;;;0.90;;
11287;SDS011;5700;50.996;7.044;2023-04-24T01:14:52;2.30;;;0.98;;
11287;SDS011;5700;50.996;7.044;2023-04-24T01:17:53;5.95;;;1.00;;
11287;SDS011;5700;50.996;7.044;2023-04-24T01:20:56;2.30;;;1.05;;
11287;SDS011;5700;50.996;7.044;2023-04-24T01:24:01;2.08;;;1.27;;
11287;SDS011;5700;50.996;7.044;2023-04-24T01:27:02;2.05;;;1.05;;
11287;SDS011;5700;50.996;7.044;2023-04-24T01:30:05;1.67;;;1.10;;
11287;SDS011;5700;50.996;7.044;2023-04-24T01:33:07;1.80;;;0.90;;
11287;SDS011;5700;50.996;7.044;2023-04-24T01:36:09;3.95;;;1.20;;
11287;SDS011;5700;50.996;7.044;2023-04-24T01:39:13;1.48;;;1.10;;
11287;SDS011;5700;50.996;7.044;2023-04-24T01:42:15;1.92;;;1.15;;
11287;SDS011;5700;50.996;7.044;2023-04-24T01:45:17;1.80;;;1.40;;
11287;SDS011;5700;50.996;7.044;2023-04-24T01:48:19;3.25;;;1.80;;
11287;SDS011;5700;50.996;7.044;2023-04-24T01:51:21;3.60;;;1.75;;
11287;SDS011;5700;50.996;7.044;2023-04-24T01:54:24;3.58;;;2.03;;
11287;SDS011;5700;50.996;7.044;2023-04-24T01:57:25;3.67;;;1.95;;
11287;SDS011;5700;50.996;7.044;2023-04-24T02:00:27;3.85;;;2.20;;
11287;SDS011;5700;50.996;7.044;2023-04-24T02:03:29;5.45;;;2.25;;
11287;SDS011;5700;50.996;7.044;2023-04-24T02:06:30;5.22;;;2.42;;
11287;SDS011;5700;50.996;7.044;2023-04-24T02:09:33;3.83;;;2.22;;
11287;SDS011;5700;50.996;7.044;2023-04-24T02:12:35;4.53;;;2.00;;
11287;SDS011;5700;50.996;7.044;2023-04-24T02:15:36;3.42;;;2.08;;
11287;SDS011;5700;50.996;7.044;2023-04-24T02:18:38;5.45;;;2.33;;
11287;SDS011;5700;50.996;7.044;2023-04-24T02:21:39;5.95;;;2.47;;
11287;SDS011;5700;50.996;7.044;2023-04-24T02:24:42;4.25;;;2.67;;
11287;SDS011;5700;50.996;7.044;2023-04-24T02:27:44;4.68;;;2.83;;
11287;SDS011;5700;50.996;7.044;2023-04-24T02:30:46;5.88;;;2.85;;
11287;SDS011;5700;50.996;7.044;2023-04-24T02:33:48;5.47;;;3.15;;
11287;SDS011;5700;50.996;7.044;2023-04-24T02:36:49;4.97;;;3.03;;
11287;SDS011;5700;50.996;7.044;2023-04-24T02:39:52;5.97;;;3.00;;
11287;SDS011;5700;50.996;7.044;2023-04-24T02:42:54;6.57;;;3.20;;
11287;SDS011;5700;50.996;7.044;2023-04-24T02:45:55;6.38;;;3.17;;
11287;SDS011;5700;50.996;7.044;2023-04-24T02:48:57;5.90;;;3.25;;
11287;SDS011;5700;50.996;7.044;2023-04-24T02:51:58;7.97;;;3.70;;
11287;SDS011;5700;50.996;7.044;2023-04-24T02:55:01;5.70;;;2.78;;
11287;SDS011;5700;50.996;7.044;2023-04-24T02:58:03;6.32;;;3.45;;
11287;SDS011;5700;50.996;7.044;2023-04-24T03:01:05;7.38;;;3.53;;
11287;SDS011;5700;50.996;7.044;2023-04-24T03:04:07;6.40;;;3.30;;
11287;SDS011;5700;50.996;7.044;2023-04-24T03:07:10;11.65;;;3.40;;
11287;SDS011;5700;50.996;7.044;2023-04-24T03:10:13;6.22;;;3.67;;
11287;SDS011;5700;50.996;7.044;2023-04-24T03:13:15;7.20;;;3.65;;
11287;SDS011;5700;50.996;7.044;2023-04-24T03:16:17;7.22;;;3.85;;
11287;SDS011;5700;50.996;7.044;2023-04-24T03:19:18;8.30;;;4.18;;
11287;SDS011;5700;50.996;7.044;2023-04-24T03:22:20;7.28;;;3.78;;
11287;SDS011;5700;50.996;7.044;2023-04-24T03:25:23;9.20;;;4.63;;
11287;SDS011;5700;50.996;7.044;2023-04-24T03:28:25;7.47;;;3.83;;
11287;SDS011;5700;50.996;7.044;2023-04-24T03:31:26;6.35;;;3.65;;
11287;SDS011;5700;50.996;7.044;2023-04-24T03:34:28;7.18;;;3.90;;
11287;SDS011;5700;50.996;7.044;2023-04-24T03:37:29;8.65;;;4.22;;
11287;SDS011;5700;50.996;7.044;2023-04-24T03:40:33;8.48;;;4.50;;
11287;SDS011;5700;50.996;7.044;2023-04-24T03:43:34;7.60;;;4.35;;
11287;SDS011;5700;50.996;7.044;2023-04-24T03:46:36;10.52;;;4.60;;
11287;SDS011;5700;50.996;7.044;2023-04-24T03:49:37;7.10;;;4.03;;
11287;SDS011;5700;50.996;7.044;2023-04-24T03:52:39;9.95;;;4.47;;
11287;SDS011;5700;50.996;7.044;2023-04-24T03:55:42;9.15;;;4.50;;
11287;SDS011;5700;50.996;7.044;2023-04-24T03:58:43;6.95;;;3.92;;
11287;SDS011;5700;50.996;7.044;2023-04-24T04:01:44;8.52;;;4.38;;
11287;SDS011;5700;50.996;7.044;2023-04-24T04:04:46;7.15;;;4.13;;
11287;SDS011;5700;50.996;7.044;2023-04-24T04:07:48;7.90;;;3.97;;
11287;SDS011;5700;50.996;7.044;2023-04-24T04:10:51;8.40;;;4.53;;
11287;SDS011;5700;50.996;7.044;2023-04-24T04:13:52;11.07;;;4.60;;
11287;SDS011;5700;50.996;7.044;2023-04-24T04:16:54;8.77;;;4.60;;
11287;SDS011;5700;50.996;7.044;2023-04-24T04:19:56;8.68;;;3.83;;
11287;SDS011;5700;50.996;7.044;2023-04-24T04:22:57;6.18;;;3.72;;
11287;SDS011;5700;50.996;7.044;2023-04-24T04:26:00;6.10;;;3.78;;
11287;SDS011;5700;50.996;7.044;2023-04-24T04:29:03;8.02;;;4.28;;
11287;SDS011;5700;50.996;7.044;2023-04-24T04:32:04;7.47;;;3.13;;
11287;SDS011;5700;50.996;7.044;2023-04-24T04:35:06;7.30;;;3.72;;
11287;SDS011;5700;50.996;7.044;2023-04-24T04:38:09;7.63;;;3.88;;
11287;SDS011;5700;50.996;7.044;2023-04-24T04:41:12;7.07;;;3.75;;
11287;SDS011;5700;50.996;7.044;2023-04-24T04:44:13;5.38;;;3.15;;
11287;SDS011;5700;50.996;7.044;2023-04-24T04:47:15;7.57;;;3.45;;
11287;SDS011;5700;50.996;7.044;2023-04-24T04:50:17;6.15;;;3.58;;
11287;SDS011;5700;50.996;7.044;2023-04-24T04:53:19;6.70;;;3.50;;
11287;SDS011;5700;50.996;7.044;2023-04-24T04:56:22;5.72;;;3.15;;
11287;SDS011;5700;50.996;7.044;2023-04-24T04:59:23;7.18;;;3.53;;
11287;SDS011;5700;50.996;7.044;2023-04-24T05:02:25;6.28;;;3.35;;
11287;SDS011;5700;50.996;7.044;2023-04-24T05:05:26;6.40;;;3.58;;
11287;SDS011;5700;50.996;7.044;2023-04-24T05:08:28;6.05;;;3.20;;
11287;SDS011;5700;50.996;7.044;2023-04-24T05:11:31;7.32;;;3.50;;
11287;SDS011;5700;50.996;7.044;2023-04-24T05:14:32;6.18;;;3.30;;
11287;SDS011;5700;50.996;7.044;2023-04-24T05:17:34;7.15;;;3.28;;
11287;SDS011;5700;50.996;7.044;2023-04-24T05:20:36;10.82;;;3.75;;
11287;SDS011;5700;50.996;7.044;2023-04-24T05:23:38;6.38;;;3.42;;
11287;SDS011;5700;50.996;7.044;2023-04-24T05:26:41;8.27;;;4.22;;
11287;SDS011;5700;50.996;7.044;2023-04-24T05:29:42;8.60;;;3.75;;
11287;SDS011;5700;50.996;7.044;2023-04-24T05:32:44;5.75;;;3.60;;
11287;SDS011;5700;50.996;7.044;2023-04-24T05:35:46;6.90;;;4.00;;
11287;SDS011;5700;50.996;7.044;2023-04-24T05:38:47;6.30;;;3.30;;
11287;SDS011;5700;50.996;7.044;2023-04-24T05:41:50;8.85;;;4.20;;
11287;SDS011;5700;50.996;7.044;2023-04-24T05:44:52;7.15;;;3.58;;
11287;SDS011;5700;50.996;7.044;2023-04-24T05:47:54;5.88;;;3.35;;
11287;SDS011;5700;50.996;7.044;2023-04-24T05:50:56;6.85;;;3.53;;
11287;SDS011;5700;50.996;7.044;2023-04-24T05:53:57;6.22;;;3.80;;
11287;SDS011;5700;50.996;7.044;2023-04-24T05:57:00;6.78;;;3.75;;
11287;SDS011;5700;50.996;7.044;2023-04-24T06:00:07;6.93;;;3.63;;
11287;SDS011;5700;50.996;7.044;2023-04-24T06:03:12;7.15;;;4.13;;
11287;SDS011;5700;50.996;7.044;2023-04-24T06:06:14;7.40;;;4.13;;
11287;SDS011;5700;50.996;7.044;2023-04-24T06:09:16;9.35;;;4.93;;
11287;SDS011;5700;50.996;7.044;2023-04-24T06:12:19;9.40;;;4.90;;
11287;SDS011;5700;50.996;7.044;2023-04-24T06:15:22;9.85;;;4.78;;
11287;SDS011;5700;50.996;7.044;2023-04-24T06:18:24;8.13;;;4.85;;
11287;SDS011;5700;50.996;7.044;2023-04-24T06:21:26;10.00;;;5.10;;
11287;SDS011;5700;50.996;7.044;2023-04-24T06:24:28;7.60;;;4.35;;
11287;SDS011;5700;50.996;7.044;2023-04-24T06:27:31;10.88;;;5.25;;
11287;SDS011;5700;50.996;7.044;2023-04-24T06:30:32;11.73;;;5.80;;
11287;SDS011;5700;50.996;7.044;2023-04-24T06:33:34;9.85;;;5.80;;
11287;SDS011;5700;50.996;7.044;2023-04-24T06:36:35;10.73;;;5.22;;
11287;SDS011;5700;50.996;7.044;2023-04-24T06:39:37;8.02;;;3.88;;
11287;SDS011;5700;50.996;7.044;2023-04-24T06:42:41;9.05;;;4.25;;
11287;SDS011;5700;50.996;7.044;2023-04-24T06:45:44;8.18;;;3.88;;
11287;SDS011;5700;50.996;7.044;2023-04-24T06:48:47;9.40;;;4.53;;
11287;SDS011;5700;50.996;7.044;2023-04-24T06:51:48;4.85;;;2.60;;
11287;SDS011;5700;50.996;7.044;2023-04-24T06:54:50;4.78;;;1.70;;
11287;SDS011;5700;50.996;7.044;2023-04-24T06:57:53;2.97;;;1.67;;
11287;SDS011;5700;50.996;7.044;2023-04-24T07:00:54;4.63;;;2.22;;
11287;SDS011;5700;50.996;7.044;2023-04-24T07:03:56;4.07;;;1.60;;
11287;SDS011;5700;50.996;7.044;2023-04-24T07:06:57;4.10;;;2.00;;
11287;SDS011;5700;50.996;7.044;2023-04-24T07:09:59;3.17;;;1.85;;
11287;SDS011;5700;50.996;7.044;2023-04-24T07:13:03;3.22;;;1.88;;
11287;SDS011;5700;50.996;7.044;2023-04-24T07:16:07;2.80;;;1.52;;
11287;SDS011;5700;50.996;7.044;2023-04-24T07:19:08;2.08;;;1.45;;
11287;SDS011;5700;50.996;7.044;2023-04-24T07:22:10;3.33;;;1.67;;
11287;SDS011;5700;50.996;7.044;2023-04-24T07:25:16;4.07;;;2.05;;
11287;SDS011;5700;50.996;7.044;2023-04-24T07:28:20;3.42;;;1.92;;
11287;SDS011;5700;50.996;7.044;2023-04-24T07:31:21;4.43;;;1.70;;
11287;SDS011;5700;50.996;7.044;2023-04-24T07:34:23;2.30;;;1.60;;
11287;SDS011;5700;50.996;7.044;2023-04-24T07:37:24;4.10;;;1.65;;
11287;SDS011;5700;50.996;7.044;2023-04-24T07:40:26;3.78;;;1.92;;
11287;SDS011;5700;50.996;7.044;2023-04-24T07:43:29;3.30;;;1.80;;
11287;SDS011;5700;50.996;7.044;2023-04-24T07:46:31;1.55;;;1.30;;
11287;SDS011;5700;50.996;7.044;2023-04-24T07:49:33;2.47;;;1.50;;
11287;SDS011;5700;50.996;7.044;2023-04-24T07:52:35;3.45;;;1.75;;
11287;SDS011;5700;50.996;7.044;2023-04-24T07:55:37;2.20;;;1.30;;
11287;SDS011;5700;50.996;7.044;2023-04-24T07:58:40;0.77;;;0.50;;
11287;SDS011;5700;50.996;7.044;2023-04-24T08:01:41;2.28;;;0.60;;
11287;SDS011;5700;50.996;7.044;2023-04-24T08:04:43;0.85;;;0.50;;
11287;SDS011;5700;50.996;7.044;2023-04-24T08:07:45;0.60;;;0.60;;
11287;SDS011;5700;50.996;7.044;2023-04-24T08:10:48;1.60;;;0.70;;
11287;SDS011;5700;50.996;7.044;2023-04-24T08:13:51;0.50;;;0.47;;
11287;SDS011;5700;50.996;7.044;2023-04-24T08:16:54;0.60;;;0.60;;
11287;SDS011;5700;50.996;7.044;2023-04-24T08:19:57;3.72;;;0.52;;
11287;SDS011;5700;50.996;7.044;2023-04-24T08:23:01;0.80;;;0.80;;
11287;SDS011;5700;50.996;7.044;2023-04-24T08:26:03;0.90;;;0.57;;
11287;SDS011;5700;50.996;7.044;2023-04-24T08:29:06;1.75;;;1.00;;
11287;SDS011;5700;50.996;7.044;2023-04-24T08:32:07;1.60;;;1.00;;
11287;SDS011;5700;50.996;7.044;2023-04-24T08:35:09;1.27;;;0.40;;
11287;SDS011;5700;50.996;7.044;2023-04-24T08:38:11;0.90;;;0.77;;
11287;SDS011;5700;50.996;7.044;2023-04-24T08:41:12;1.65;;;1.00;;
11287;SDS011;5700;50.996;7.044;2023-04-24T08:44:17;3.08;;;1.33;;
11287;SDS011;5700;50.996;7.044;2023-04-24T08:47:18;1.67;;;0.80;;
11287;SDS011;5700;50.996;7.044;2023-04-24T08:50:21;3.28;;;0.80;;
11287;SDS011;5700;50.996;7.044;2023-04-24T08:53:23;2.90;;;1.02;;
11287;SDS011;5700;50.996;7.044;2023-04-24T08:56:26;0.85;;;0.70;;
11287;SDS011;5700;50.996;7.044;2023-04-24T08:59:29;3.92;;;0.68;;
11287;SDS011;5700;50.996;7.044;2023-04-24T09:02:32;1.30;;;0.93;;
11287;SDS011;5700;50.996;7.044;2023-04-24T09:05:34;1.55;;;1.30;;
11287;SDS011;5700;50.996;7.044;2023-04-24T09:08:36;2.15;;;0.98;;
11287;SDS011;5700;50.996;7.044;2023-04-24T09:11:38;3.08;;;1.63;;
11287;SDS011;5700;50.996;7.044;2023-04-24T09:14:41;6.13;;;1.50;;
11287;SDS011;5700;50.996;7.044;2023-04-24T09:17:45;2.60;;;1.48;;
11287;SDS011;5700;50.996;7.044;2023-04-24T09:24:05;3.13;;;1.25;;
11287;SDS011;5700;50.996;7.044;2023-04-24T09:27:08;2.88;;;1.80;;
11287;SDS011;5700;50.996;7.044;2023-04-24T09:30:14;6.35;;;2.03;;
11287;SDS011;5700;50.996;7.044;2023-04-24T09:33:22;4.43;;;1.85;;
11287;SDS011;5700;50.996;7.044;2023-04-24T09:36:27;4.03;;;2.38;;
11287;SDS011;5700;50.996;7.044;2023-04-24T09:39:29;4.32;;;2.35;;
11287;SDS011;5700;50.996;7.044;2023-04-24T09:42:31;3.70;;;2.20;;
11287;SDS011;5700;50.996;7.044;2023-04-24T09:45:36;7.28;;;2.30;;
11287;SDS011;5700;50.996;7.044;2023-04-24T09:48:39;10.00;;;3.55;;
11287;SDS011;5700;50.996;7.044;2023-04-24T09:51:40;6.75;;;3.17;;
11287;SDS011;5700;50.996;7.044;2023-04-24T09:54:42;4.63;;;2.78;;
11287;SDS011;5700;50.996;7.044;2023-04-24T09:57:54;6.85;;;3.22;;
11287;SDS011;5700;50.996;7.044;2023-04-24T10:00:59;8.60;;;3.25;;
11287;SDS011;5700;50.996;7.044;2023-04-24T10:04:00;7.32;;;3.20;;
11287;SDS011;5700;50.996;7.044;2023-04-24T10:07:02;8.70;;;3.97;;
11287;SDS011;5700;50.996;7.044;2023-04-24T10:10:07;7.85;;;3.95;;
11287;SDS011;5700;50.996;7.044;2023-04-24T10:13:12;8.80;;;4.00;;
11287;SDS011;5700;50.996;7.044;2023-04-24T10:16:16;10.02;;;4.22;;
11287;SDS011;5700;50.996;7.044;2023-04-24T10:19:18;12.68;;;5.85;;
11287;SDS011;5700;50.996;7.044;2023-04-24T10:22:20;16.48;;;6.32;;
11287;SDS011;5700;50.996;7.044;2023-04-24T10:25:23;10.77;;;5.68;;
11287;SDS011;5700;50.996;7.044;2023-04-24T10:28:25;11.20;;;5.38;;
11287;SDS011;5700;50.996;7.044;2023-04-24T10:31:32;10.27;;;5.28;;
11287;SDS011;5700;50.996;7.044;2023-04-24T10:34:34;9.93;;;4.72;;
11287;SDS011;5700;50.996;7.044;2023-04-24T10:37:36;9.90;;;4.93;;
11287;SDS011;5700;50.996;7.044;2023-04-24T10:40:39;10.15;;;4.55;;
11287;SDS011;5700;50.996;7.044;2023-04-24T10:43:40;14.43;;;5.25;;
11287;SDS011;5700;50.996;7.044;2023-04-24T10:46:45;9.05;;;4.00;;
11287;SDS011;5700;50.996;7.044;2023-04-24T10:49:50;9.45;;;3.75;;
11287;SDS011;5700;50.996;7.044;2023-04-24T10:52:51;12.98;;;4.60;;
11287;SDS011;5700;50.996;7.044;2023-04-24T10:55:57;4.88;;;1.80;;
11287;SDS011;5700;50.996;7.044;2023-04-24T10:58:59;4.53;;;1.60;;
11287;SDS011;5700;50.996;7.044;2023-04-24T11:02:03;3.25;;;1.63;;
11287;SDS011;5700;50.996;7.044;2023-04-24T11:05:08;2.95;;;1.67;;
11287;SDS011;5700;50.996;7.044;2023-04-24T11:08:11;3.17;;;1.63;;
11287;SDS011;5700;50.996;7.044;2023-04-24T11:11:14;2.75;;;1.35;;
11287;SDS011;5700;50.996;7.044;2023-04-24T11:14:16;4.97;;;1.00;;
11287;SDS011;5700;50.996;7.044;2023-04-24T11:17:28;3.60;;;1.75;;
11287;SDS011;5700;50.996;7.044;2023-04-24T11:20:30;2.22;;;1.00;;
11287;SDS011;5700;50.996;7.044;2023-04-24T11:23:35;2.20;;;1.45;;
11287;SDS011;5700;50.996;7.044;2023-04-24T11:26:37;2.30;;;1.20;;
11287;SDS011;5700;50.996;7.044;2023-04-24T11:29:40;2.75;;;1.10;;
11287;SDS011;5700;50.996;7.044;2023-04-24T11:32:47;4.05;;;1.73;;
11287;SDS011;5700;50.996;7.044;2023-04-24T11:35:49;5.55;;;1.60;;
11287;SDS011;5700;50.996;7.044;2023-04-24T11:38:52;3.10;;;1.25;;
11287;SDS011;5700;50.996;7.044;2023-04-24T11:41:53;4.03;;;1.77;;
11287;SDS011;5700;50.996;7.044;2023-04-24T11:45:07;8.82;;;1.65;;
11287;SDS011;5700;50.996;7.044;2023-04-24T11:48:10;6.28;;;2.10;;
11287;SDS011;5700;50.996;7.044;2023-04-24T11:51:12;6.72;;;2.42;;
11287;SDS011;5700;50.996;7.044;2023-04-24T11:54:13;4.03;;;1.27;;
11287;SDS011;5700;50.996;7.044;2023-04-24T11:57:15;7.97;;;1.40;;
11287;SDS011;5700;50.996;7.044;2023-04-24T12:00:18;4.78;;;1.70;;
11287;SDS011;5700;50.996;7.044;2023-04-24T12:03:22;7.40;;;1.35;;
11287;SDS011;5700;50.996;7.044;2023-04-24T12:06:23;4.28;;;1.55;;
11287;SDS011;5700;50.996;7.044;2023-04-24T12:09:25;6.18;;;1.70;;
11287;SDS011;5700;50.996;7.044;2023-04-24T12:12:27;3.40;;;1.55;;
11287;SDS011;5700;50.996;7.044;2023-04-24T12:15:29;3.17;;;1.63;;
11287;SDS011;5700;50.996;7.044;2023-04-24T12:18:32;2.65;;;1.52;;
11287;SDS011;5700;50.996;7.044;2023-04-24T12:21:34;1.98;;;1.35;;
11287;SDS011;5700;50.996;7.044;2023-04-24T12:24:55;3.20;;;2.05;;
11287;SDS011;5700;50.996;7.044;2023-04-24T12:28:08;2.70;;;2.00;;
11287;SDS011;5700;50.996;7.044;2023-04-24T12:31:11;10.30;;;1.67;;
11287;SDS011;5700;50.996;7.044;2023-04-24T12:34:18;3.33;;;1.40;;
11287;SDS011;5700;50.996;7.044;2023-04-24T12:37:22;2.35;;;1.60;;
11287;SDS011;5700;50.996;7.044;2023-04-24T12:40:25;2.25;;;1.40;;
11287;SDS011;5700;50.996;7.044;2023-04-24T12:43:26;2.15;;;1.30;;
11287;SDS011;5700;50.996;7.044;2023-04-24T12:46:28;5.18;;;1.75;;
11287;SDS011;5700;50.996;7.044;2023-04-24T12:49:31;4.18;;;1.88;;
11287;SDS011;5700;50.996;7.044;2023-04-24T12:52:33;8.07;;;1.83;;
11287;SDS011;5700;50.996;7.044;2023-04-24T12:55:35;3.17;;;1.70;;
11287;SDS011;5700;50.996;7.044;2023-04-24T12:58:36;2.30;;;1.17;;
11287;SDS011;5700;50.996;7.044;2023-04-24T13:01:38;3.42;;;1.50;;
11287;SDS011;5700;50.996;7.044;2023-04-24T13:04:40;2.35;;;1.65;;
11287;SDS011;5700;50.996;7.044;2023-04-24T13:07:42;3.40;;;1.33;;
11287;SDS011;5700;50.996;7.044;2023-04-24T13:10:43;1.20;;;1.08;;
11287;SDS011;5700;50.996;7.044;2023-04-24T13:13:45;2.58;;;1.27;;
11287;SDS011;5700;50.996;7.044;2023-04-24T13:16:47;1.58;;;1.10;;
11287;SDS011;5700;50.996;7.044;2023-04-24T13:19:50;4.97;;;2.22;;
11287;SDS011;5700;50.996;7.044;2023-04-24T13:22:52;2.08;;;1.50;;
11287;SDS011;5700;50.996;7.044;2023-04-24T13:25:54;4.95;;;1.58;;
11287;SDS011;5700;50.996;7.044;2023-04-24T13:28:58;6.72;;;1.95;;
11287;SDS011;5700;50.996;7.044;2023-04-24T13:32:00;1.75;;;1.35;;
11287;SDS011;5700;50.996;7.044;2023-04-24T13:35:03;8.82;;;1.73;;
11287;SDS011;5700;50.996;7.044;2023-04-24T13:38:05;1.88;;;1.45;;
11287;SDS011;5700;50.996;7.044;2023-04-24T13:41:07;2.30;;;1.40;;
11287;SDS011;5700;50.996;7.044;2023-04-24T13:44:08;4.13;;;1.65;;
11287;SDS011;5700;50.996;7.044;2023-04-24T13:47:10;2.97;;;1.67;;
11287;SDS011;5700;50.996;7.044;2023-04-24T13:50:13;1.25;;;1.13;;
11287;SDS011;5700;50.996;7.044;2023-04-24T13:53:16;5.13;;;1.33;;
11287;SDS011;5700;50.996;7.044;2023-04-24T13:56:18;3.00;;;1.40;;
11287;SDS011;5700;50.996;7.044;2023-04-24T13:59:20;4.70;;;1.40;;
11287;SDS011;5700;50.996;7.044;2023-04-24T14:02:22;6.75;;;1.70;;
11287;SDS011;5700;50.996;7.044;2023-04-24T14:05:25;1.65;;;1.23;;
11287;SDS011;5700;50.996;7.044;2023-04-24T14:08:28;4.78;;;1.67;;
11287;SDS011;5700;50.996;7.044;2023-04-24T14:11:30;4.30;;;1.30;;
11287;SDS011;5700;50.996;7.044;2023-04-24T14:14:32;4.18;;;1.95;;
11287;SDS011;5700;50.996;7.044;2023-04-24T14:17:33;2.65;;;1.10;;
11287;SDS011;5700;50.996;7.044;2023-04-24T14:20:36;2.45;;;1.30;;
11287;SDS011;5700;50.996;7.044;2023-04-24T14:23:38;3.10;;;1.42;;
11287;SDS011;5700;50.996;7.044;2023-04-24T14:26:42;4.22;;;1.38;;
11287;SDS011;5700;50.996;7.044;2023-04-24T14:29:44;3.30;;;1.67;;
11287;SDS011;5700;50.996;7.044;2023-04-24T14:32:45;8.63;;;2.05;;
11287;SDS011;5700;50.996;7.044;2023-04-24T14:35:48;4.45;;;2.00;;
11287;SDS011;5700;50.996;7.044;2023-04-24T14:38:50;3.72;;;1.75;;
11287;SDS011;5700;50.996;7.044;2023-04-24T14:41:52;3.50;;;1.17;;
11287;SDS011;5700;50.996;7.044;2023-04-24T14:44:53;4.25;;;1.67;;
11287;SDS011;5700;50.996;7.044;2023-04-24T14:47:55;2.78;;;1.15;;
11287;SDS011;5700;50.996;7.044;2023-04-24T14:50:58;1.77;;;1.38;;
11287;SDS011;5700;50.996;7.044;2023-04-24T14:54:00;2.70;;;1.60;;
11287;SDS011;5700;50.996;7.044;2023-04-24T14:57:03;2.75;;;1.38;;
11287;SDS011;5700;50.996;7.044;2023-04-24T15:00:05;4.47;;;1.60;;
11287;SDS011;5700;50.996;7.044;2023-04-24T15:03:10;2.88;;;1.30;;
11287;SDS011;5700;50.996;7.044;2023-04-24T15:06:13;2.53;;;1.20;;
11287;SDS011;5700;50.996;7.044;2023-04-24T15:09:14;2.25;;;1.30;;
11287;SDS011;5700;50.996;7.044;2023-04-24T15:12:16;4.63;;;1.25;;
11287;SDS011;5700;50.996;7.044;2023-04-24T15:15:18;1.60;;;0.90;;
11287;SDS011;5700;50.996;7.044;2023-04-24T15:18:20;5.38;;;1.00;;
11287;SDS011;5700;50.996;7.044;2023-04-24T15:21:23;1.63;;;1.17;;
11287;SDS011;5700;50.996;7.044;2023-04-24T15:24:24;1.45;;;1.10;;
11287;SDS011;5700;50.996;7.044;2023-04-24T15:27:26;2.42;;;1.35;;
11287;SDS011;5700;50.996;7.044;2023-04-24T15:30:28;5.72;;;1.55;;
11287;SDS011;5700;50.996;7.044;2023-04-24T15:33:33;4.05;;;1.30;;
11287;SDS011;5700;50.996;7.044;2023-04-24T15:36:36;2.75;;;1.23;;
11287;SDS011;5700;50.996;7.044;2023-04-24T15:39:37;1.83;;;1.30;;
11287;SDS011;5700;50.996;7.044;2023-04-24T15:42:39;4.90;;;1.92;;
11287;SDS011;5700;50.996;7.044;2023-04-24T15:45:41;3.28;;;1.35;;
11287;SDS011;5700;50.996;7.044;2023-04-24T15:48:42;1.83;;;1.27;;
11287;SDS011;5700;50.996;7.044;2023-04-24T15:51:45;1.83;;;1.27;;
11287;SDS011;5700;50.996;7.044;2023-04-24T15:54:47;3.60;;;1.33;;
11287;SDS011;5700;50.996;7.044;2023-04-24T15:57:48;3.20;;;1.80;;
11287;SDS011;5700;50.996;7.044;2023-04-24T16:00:50;2.78;;;1.45;;
11287;SDS011;5700;50.996;7.044;2023-04-24T16:03:53;5.85;;;1.67;;
11287;SDS011;5700;50.996;7.044;2023-04-24T16:06:56;3.17;;;1.73;;
11287;SDS011;5700;50.996;7.044;2023-04-24T16:09:57;6.05;;;1.60;;
11287;SDS011;5700;50.996;7.044;2023-04-24T16:12:58;5.38;;;2.30;;
11287;SDS011;5700;50.996;7.044;2023-04-24T16:16:03;3.25;;;1.90;;
11287;SDS011;5700;50.996;7.044;2023-04-24T16:19:04;3.55;;;1.73;;
11287;SDS011;5700;50.996;7.044;2023-04-24T16:22:08;3.05;;;1.58;;
11287;SDS011;5700;50.996;7.044;2023-04-24T16:25:10;3.00;;;1.63;;
11287;SDS011;5700;50.996;7.044;2023-04-24T16:28:11;4.22;;;1.70;;
11287;SDS011;5700;50.996;7.044;2023-04-24T16:31:14;3.53;;;1.70;;
11287;SDS011;5700;50.996;7.044;2023-04-24T16:34:15;4.22;;;2.10;;
11287;SDS011;5700;50.996;7.044;2023-04-24T16:37:18;3.97;;;2.00;;
11287;SDS011;5700;50.996;7.044;2023-04-24T16:40:20;2.85;;;1.70;;
11287;SDS011;5700;50.996;7.044;2023-04-24T16:43:22;4.45;;;2.10;;
11287;SDS011;5700;50.996;7.044;2023-04-24T16:46:23;4.68;;;2.05;;
11287;SDS011;5700;50.996;7.044;2023-04-24T16:49:26;5.25;;;1.75;;
11287;SDS011;5700;50.996;7.044;2023-04-24T16:52:31;4.88;;;2.03;;
11287;SDS011;5700;50.996;7.044;2023-04-24T16:55:32;2.05;;;1.20;;
11287;SDS011;5700;50.996;7.044;2023-04-24T16:58:34;2.05;;;1.50;;
11287;SDS011;5700;50.996;7.044;2023-04-24T17:01:36;8.52;;;1.80;;
11287;SDS011;5700;50.996;7.044;2023-04-24T17:04:37;2.90;;;1.60;;
11287;SDS011;5700;50.996;7.044;2023-04-24T17:07:41;5.63;;;1.50;;
11287;SDS011;5700;50.996;7.044;2023-04-24T17:10:42;3.67;;;1.30;;
11287;SDS011;5700;50.996;7.044;2023-04-24T17:13:44;5.20;;;1.67;;
11287;SDS011;5700;50.996;7.044;2023-04-24T17:16:45;3.45;;;1.30;;
11287;SDS011;5700;50.996;7.044;2023-04-24T17:19:46;2.67;;;1.23;;
11287;SDS011;5700;50.996;7.044;2023-04-24T17:22:51;2.28;;;1.13;;
11287;SDS011;5700;50.996;7.044;2023-04-24T17:25:53;4.85;;;1.33;;
11287;SDS011;5700;50.996;7.044;2023-04-24T17:28:54;3.17;;;1.23;;
11287;SDS011;5700;50.996;7.044;2023-04-24T17:31:56;3.42;;;1.35;;
11287;SDS011;5700;50.996;7.044;2023-04-24T17:34:57;1.35;;;1.08;;
11287;SDS011;5700;50.996;7.044;2023-04-24T17:38:00;5.13;;;1.48;;
11287;SDS011;5700;50.996;7.044;2023-04-24T17:41:02;2.47;;;1.27;;
11287;SDS011;5700;50.996;7.044;2023-04-24T17:44:03;2.55;;;1.30;;
11287;SDS011;5700;50.996;7.044;2023-04-24T17:47:06;1.77;;;1.20;;
11287;SDS011;5700;50.996;7.044;2023-04-24T17:50:07;3.65;;;1.25;;
11287;SDS011;5700;50.996;7.044;2023-04-24T17:53:11;7.63;;;1.33;;
11287;SDS011;5700;50.996;7.044;2023-04-24T17:56:13;2.72;;;1.08;;
11287;SDS011;5700;50.996;7.044;2023-04-24T17:59:15;8.15;;;1.42;;
11287;SDS011;5700;50.996;7.044;2023-04-24T18:02:16;2.28;;;1.13;;
11287;SDS011;5700;50.996;7.044;2023-04-24T18:05:18;2.38;;;1.33;;
11287;SDS011;5700;50.996;7.044;2023-04-24T18:08:21;2.72;;;1.17;;
11287;SDS011;5700;50.996;7.044;2023-04-24T18:11:23;2.58;;;1.25;;
11287;SDS011;5700;50.996;7.044;2023-04-24T18:14:24;3.78;;;1.45;;
11287;SDS011;5700;50.996;7.044;2023-04-24T18:17:27;2.65;;;1.10;;
11287;SDS011;5700;50.996;7.044;2023-04-24T18:20:29;5.53;;;1.38;;
11287;SDS011;5700;50.996;7.044;2023-04-24T18:23:31;3.42;;;1.30;;
11287;SDS011;5700;50.996;7.044;2023-04-24T18:26:34;3.78;;;1.23;;
11287;SDS011;5700;50.996;7.044;2023-04-24T18:29:35;3.83;;;1.27;;
11287;SDS011;5700;50.996;7.044;2023-04-24T18:32:37;7.00;;;1.75;;
11287;SDS011;5700;50.996;7.044;2023-04-24T18:35:38;4.35;;;2.17;;
11287;SDS011;5700;50.996;7.044;2023-04-24T18:38:41;3.33;;;1.77;;